createdAt,value
2022-12-20T00:01:34.805Z,43.20
2022-12-20T00:04:05.364Z,52.70
2022-12-20T00:06:34.949Z,38.37
2022-12-20T00:09:04.292Z,43.67
2022-12-20T00:11:31.381Z,45.33
2022-12-20T00:13:59.030Z,52.13
2022-12-20T00:16:29.960Z,42.13
2022-12-20T00:19:00.199Z,47.77
2022-12-20T00:21:28.349Z,52.03
2022-12-20T00:23:56.328Z,49.33
2022-12-20T00:26:26.255Z,45.90
2022-12-20T00:28:54.068Z,40.73
2022-12-20T00:31:23.672Z,45.53
2022-12-20T00:33:52.417Z,49.63
2022-12-20T00:36:20.397Z,45.20
2022-12-20T00:38:49.242Z,39.73
2022-12-20T00:41:19.256Z,51.03
2022-12-20T00:43:46.695Z,42.00
2022-12-20T00:46:15.527Z,46.70
2022-12-20T00:48:42.861Z,46.43
2022-12-20T00:51:15.708Z,48.10
2022-12-20T00:53:43.466Z,41.97
2022-12-20T00:56:11.049Z,41.13
2022-12-20T00:58:40.342Z,41.33
2022-12-20T01:01:23.113Z,40.23
2022-12-20T01:03:50.840Z,53.77
2022-12-20T01:06:19.551Z,54.30
2022-12-20T01:08:46.916Z,49.77
2022-12-20T01:11:18.304Z,43.47
2022-12-20T01:13:47.943Z,41.33
2022-12-20T01:16:33.475Z,43.87
2022-12-20T01:19:01.211Z,40.50
2022-12-20T01:21:29.241Z,46.40
2022-12-20T01:23:56.555Z,42.27
2022-12-20T01:26:26.638Z,47.67
2022-12-20T01:28:56.558Z,46.27
2022-12-20T01:31:24.547Z,42.60
2022-12-20T01:33:52.780Z,41.07
2022-12-20T01:36:25.287Z,41.30
2022-12-20T01:38:59.448Z,42.30
2022-12-20T01:41:28.368Z,43.83
2022-12-20T01:43:58.527Z,47.60
2022-12-20T01:46:27.935Z,43.37
2022-12-20T01:49:18.852Z,49.80
2022-12-20T01:51:49.299Z,39.23
2022-12-20T01:54:24.604Z,46.47
2022-12-20T01:56:57.107Z,41.27
2022-12-20T01:59:25.794Z,39.60
2022-12-20T02:01:53.038Z,39.13
2022-12-20T02:04:20.089Z,49.47
2022-12-20T02:06:47.021Z,45.00
2022-12-20T02:09:14.412Z,43.83
2022-12-20T02:12:16.491Z,52.30
2022-12-20T02:15:15.649Z,49.23
2022-12-20T02:18:01.771Z,44.10
2022-12-20T02:21:08.695Z,40.77
2022-12-20T02:24:26.916Z,43.53
2022-12-20T02:27:26.660Z,47.07
2022-12-20T02:30:06.923Z,39.57
2022-12-20T02:32:52.955Z,44.80
2022-12-20T02:35:25.296Z,41.00
2022-12-20T02:37:58.742Z,42.40
2022-12-20T02:40:29.805Z,43.47
2022-12-20T02:43:01.636Z,43.10
2022-12-20T02:45:34.762Z,38.97
2022-12-20T02:48:08.110Z,37.87
2022-12-20T02:50:44.691Z,43.23
2022-12-20T02:53:13.190Z,37.50
2022-12-20T02:56:04.221Z,40.40
2022-12-20T02:58:39.986Z,40.03
2022-12-20T03:01:30.649Z,37.60
2022-12-20T03:03:58.933Z,38.63
2022-12-20T03:06:26.185Z,39.43
2022-12-20T03:08:53.268Z,37.67
2022-12-20T03:11:20.671Z,44.00
2022-12-20T03:13:47.826Z,41.93
2022-12-20T03:16:15.748Z,37.90
2022-12-20T03:18:45.468Z,45.37
2022-12-20T03:21:12.743Z,38.07
2022-12-20T03:23:39.735Z,44.37
2022-12-20T03:26:06.771Z,33.83
2022-12-20T03:28:33.740Z,41.33
2022-12-20T03:31:00.821Z,36.87
2022-12-20T03:33:27.810Z,37.47
2022-12-20T03:35:54.770Z,39.63
2022-12-20T03:38:21.789Z,39.83
2022-12-20T03:40:48.778Z,47.57
2022-12-20T03:43:16.118Z,45.90
2022-12-20T03:45:43.224Z,36.83
2022-12-20T03:48:10.158Z,41.80
2022-12-20T03:50:37.392Z,35.60
2022-12-20T03:53:04.698Z,41.80
2022-12-20T03:55:31.677Z,40.90
2022-12-20T03:57:58.682Z,33.70
2022-12-20T04:00:26.292Z,42.53
2022-12-20T04:02:53.360Z,36.53
2022-12-20T04:05:21.398Z,38.60
2022-12-20T04:07:48.513Z,39.40
2022-12-20T04:10:15.612Z,32.00
2022-12-20T04:12:42.566Z,34.67
2022-12-20T04:15:10.017Z,39.57
2022-12-20T04:17:36.965Z,41.47
2022-12-20T04:20:19.239Z,40.97
2022-12-20T04:22:48.351Z,38.10
2022-12-20T04:25:17.360Z,38.43
2022-12-20T04:27:44.630Z,43.10
2022-12-20T04:30:13.040Z,41.33
2022-12-20T04:32:40.032Z,43.07
2022-12-20T04:35:07.542Z,38.87
2022-12-20T04:37:34.479Z,42.57
2022-12-20T04:40:01.527Z,37.67
2022-12-20T04:42:28.523Z,35.73
2022-12-20T04:44:55.501Z,36.93
2022-12-20T04:47:22.511Z,39.10
2022-12-20T04:49:49.452Z,40.63
2022-12-20T04:52:35.907Z,38.10
2022-12-20T04:55:03.519Z,39.83
2022-12-20T04:57:30.498Z,38.90
2022-12-20T04:59:57.512Z,37.13
2022-12-20T05:02:24.639Z,41.27
2022-12-20T05:04:51.750Z,46.60
2022-12-20T05:07:18.751Z,37.63
2022-12-20T05:09:45.823Z,41.27
2022-12-20T05:12:12.804Z,39.47
2022-12-20T05:14:39.843Z,38.33
2022-12-20T05:17:06.839Z,36.43
2022-12-20T05:19:33.808Z,37.63
2022-12-20T05:22:19.405Z,40.20
2022-12-20T05:25:05.152Z,41.97
2022-12-20T05:27:32.142Z,38.97
2022-12-20T05:29:59.191Z,34.97
2022-12-20T05:32:26.176Z,36.33
2022-12-20T05:34:53.177Z,34.10
2022-12-20T05:37:20.213Z,36.70
2022-12-20T05:39:47.381Z,36.27
2022-12-20T05:42:14.526Z,37.53
2022-12-20T05:44:41.563Z,35.57
2022-12-20T05:47:09.181Z,49.13
2022-12-20T05:49:36.218Z,51.70
2022-12-20T05:52:03.674Z,40.17
2022-12-20T05:54:30.704Z,45.57
2022-12-20T05:56:57.724Z,47.33
2022-12-20T05:59:25.053Z,39.80
2022-12-20T06:01:52.251Z,35.50
2022-12-20T06:04:19.252Z,38.93
2022-12-20T06:06:46.630Z,32.10
2022-12-20T06:09:13.605Z,61.00
2022-12-20T06:11:40.919Z,49.03
2022-12-20T06:14:07.889Z,37.57
2022-12-20T06:16:36.374Z,42.90
2022-12-20T06:19:03.443Z,44.27
2022-12-20T06:21:30.464Z,39.73
2022-12-20T06:23:57.427Z,37.93
2022-12-20T06:26:24.619Z,38.27
2022-12-20T06:28:57.184Z,39.60
2022-12-20T06:31:24.402Z,39.20
2022-12-20T06:33:51.405Z,33.40
2022-12-20T06:36:18.661Z,37.17
2022-12-20T06:38:45.638Z,38.93
2022-12-20T06:41:13.011Z,35.20
2022-12-20T06:43:40.370Z,37.77
2022-12-20T06:46:07.452Z,35.97
2022-12-20T06:48:34.476Z,38.03
2022-12-20T06:51:01.479Z,41.40
2022-12-20T06:53:29.559Z,33.10
2022-12-20T06:55:56.525Z,34.87
2022-12-20T06:58:23.629Z,31.90
2022-12-20T07:00:51.899Z,34.47
2022-12-20T07:03:19.013Z,37.23
2022-12-20T07:05:51.327Z,34.10
2022-12-20T07:08:19.268Z,38.87
2022-12-20T07:10:46.841Z,36.70
2022-12-20T07:13:14.242Z,45.17
2022-12-20T07:15:42.037Z,35.73
2022-12-20T07:18:09.003Z,33.07
2022-12-20T07:20:36.657Z,37.87
2022-12-20T07:23:03.938Z,32.07
2022-12-20T07:25:30.911Z,35.57
2022-12-20T07:27:58.524Z,36.07
2022-12-20T07:30:26.207Z,36.63
2022-12-20T07:32:53.227Z,29.47
2022-12-20T07:35:20.314Z,36.03
2022-12-20T07:37:47.304Z,33.87
2022-12-20T07:40:16.298Z,35.33
2022-12-20T07:42:48.759Z,31.87
2022-12-20T07:45:16.282Z,35.50
2022-12-20T07:47:44.079Z,36.13
2022-12-20T07:50:11.947Z,32.57
2022-12-20T07:52:42.072Z,32.87
2022-12-20T07:55:10.475Z,32.20
2022-12-20T07:57:49.475Z,31.53
2022-12-20T08:00:18.909Z,29.20
2022-12-20T08:03:05.273Z,35.47
2022-12-20T08:05:34.962Z,30.47
2022-12-20T08:08:03.854Z,30.23
2022-12-20T08:10:31.682Z,33.47
2022-12-20T08:12:59.510Z,30.03
2022-12-20T08:15:28.443Z,30.17
2022-12-20T08:17:55.473Z,29.10
2022-12-20T08:20:22.494Z,28.83
2022-12-20T08:22:49.461Z,27.83
2022-12-20T08:25:16.696Z,28.57
2022-12-20T08:27:43.907Z,24.97
2022-12-20T08:30:11.533Z,25.60
2022-12-20T08:32:38.889Z,29.17
2022-12-20T08:35:06.536Z,30.40
2022-12-20T08:37:33.801Z,26.47
2022-12-20T08:40:01.006Z,31.07
2022-12-20T08:42:28.651Z,29.37
2022-12-20T08:44:57.340Z,24.63
2022-12-20T08:47:24.335Z,30.07
2022-12-20T08:49:51.551Z,25.23
2022-12-20T08:52:18.594Z,28.63
2022-12-20T08:54:46.192Z,27.27
2022-12-20T08:57:13.845Z,25.00
2022-12-20T08:59:40.967Z,25.47
2022-12-20T09:02:08.272Z,24.87
2022-12-20T09:04:35.706Z,23.47
2022-12-20T09:07:02.899Z,30.30
2022-12-20T09:09:32.120Z,26.07
2022-12-20T09:11:59.116Z,27.87
2022-12-20T09:14:26.348Z,27.47
2022-12-20T09:16:53.338Z,24.07
2022-12-20T09:19:20.376Z,27.73
2022-12-20T09:21:47.416Z,27.37
2022-12-20T09:24:14.473Z,24.70
2022-12-20T09:26:41.453Z,21.10
2022-12-20T09:29:08.407Z,27.23
2022-12-20T09:31:35.480Z,26.17
2022-12-20T09:34:02.591Z,21.60
2022-12-20T09:36:30.408Z,24.50
2022-12-20T09:38:57.608Z,28.87
2022-12-20T09:41:37.399Z,23.80
2022-12-20T09:44:27.298Z,23.37
2022-12-20T09:47:12.069Z,27.07
2022-12-20T09:49:43.134Z,23.13
2022-12-20T09:52:23.936Z,27.40
2022-12-20T09:55:24.775Z,22.17
2022-12-20T09:58:10.427Z,23.30
2022-12-20T10:00:53.827Z,21.50
2022-12-20T10:03:29.097Z,27.73
2022-12-20T10:06:00.881Z,27.93
2022-12-20T10:08:50.843Z,23.23
2022-12-20T10:11:40.908Z,24.77
2022-12-20T10:14:43.659Z,24.20
2022-12-20T10:17:17.257Z,24.03
2022-12-20T10:20:09.966Z,26.52
2022-12-20T10:22:43.586Z,25.23
2022-12-20T10:25:23.687Z,27.40
2022-12-20T10:27:57.079Z,29.07
2022-12-20T10:30:26.540Z,21.30
2022-12-20T10:32:57.771Z,23.93
2022-12-20T10:35:37.846Z,19.37
2022-12-20T10:38:12.648Z,22.53
2022-12-20T10:43:49.844Z,20.27
2022-12-20T10:46:17.141Z,21.03
2022-12-20T10:48:46.723Z,21.57
2022-12-20T10:51:20.192Z,22.40
2022-12-20T10:53:53.145Z,24.37
2022-12-20T10:56:22.938Z,24.40
2022-12-20T10:59:21.361Z,27.13
2022-12-20T11:01:49.924Z,27.30
2022-12-20T11:04:38.747Z,24.17
2022-12-20T11:07:26.007Z,21.80
2022-12-20T11:09:56.338Z,19.93
2022-12-20T11:12:23.623Z,23.07
2022-12-20T11:14:50.598Z,23.80
2022-12-20T11:17:32.598Z,24.97
2022-12-20T11:20:27.373Z,27.50
2022-12-20T11:23:06.879Z,29.37
2022-12-20T11:25:50.889Z,24.60
2022-12-20T11:28:44.901Z,24.30
2022-12-20T11:31:25.602Z,21.77
2022-12-20T11:34:18.464Z,26.23
2022-12-20T11:36:57.489Z,20.43
2022-12-20T11:39:42.972Z,22.73
2022-12-20T11:42:40.636Z,20.40
2022-12-20T11:45:40.811Z,21.43
2022-12-20T11:48:35.505Z,23.30
2022-12-20T11:51:09.610Z,26.77
2022-12-20T11:53:45.643Z,22.10
2022-12-20T11:56:23.126Z,20.67
2022-12-20T11:58:57.608Z,23.20
2022-12-20T12:01:40.955Z,22.30
2022-12-20T12:04:22.784Z,20.80
2022-12-20T12:06:59.494Z,21.10
2022-12-20T12:09:41.460Z,20.90
2022-12-20T12:12:40.628Z,21.73
2022-12-20T12:15:22.714Z,24.73
2022-12-20T12:18:09.335Z,22.23
2022-12-20T12:20:45.395Z,23.57
2022-12-20T12:23:34.721Z,21.57
2022-12-20T12:26:14.887Z,35.53
2022-12-20T12:28:41.999Z,23.03
2022-12-20T12:31:16.832Z,22.40
2022-12-20T12:34:09.340Z,23.27
2022-12-20T12:37:03.566Z,21.00
2022-12-20T12:39:45.495Z,20.00
2022-12-20T12:42:37.580Z,22.97
2022-12-20T12:45:47.792Z,22.57
2022-12-20T12:48:39.399Z,22.47
2022-12-20T12:51:07.315Z,23.97
2022-12-20T12:53:50.700Z,26.40
2022-12-20T12:56:43.390Z,21.93
2022-12-20T12:59:39.897Z,20.53
2022-12-20T13:02:16.742Z,19.30
2022-12-20T13:04:57.681Z,20.00
2022-12-20T13:07:34.008Z,24.17
2022-12-20T13:10:25.709Z,22.50
2022-12-20T13:12:52.830Z,22.93
2022-12-20T13:15:19.856Z,19.27
2022-12-20T13:17:55.697Z,20.10
2022-12-20T13:20:28.566Z,34.63
2022-12-20T13:23:11.949Z,23.00
2022-12-20T13:25:51.980Z,23.87
2022-12-20T13:28:22.811Z,24.37
2022-12-20T13:31:02.309Z,28.37
2022-12-20T13:33:47.881Z,22.60
2022-12-20T13:36:18.340Z,22.33
2022-12-20T13:39:26.692Z,21.30
2022-12-20T13:42:17.259Z,25.27
2022-12-20T13:44:47.033Z,19.80
2022-12-20T13:47:32.743Z,23.10
2022-12-20T13:50:23.259Z,23.17
2022-12-20T13:52:51.338Z,24.03
2022-12-20T13:55:33.578Z,19.83
2022-12-20T13:58:16.525Z,27.53
2022-12-20T14:00:45.259Z,22.97
2022-12-20T14:03:28.771Z,22.33
2022-12-20T14:06:04.532Z,24.27
2022-12-20T14:08:34.588Z,23.73
2022-12-20T14:11:22.867Z,23.37
2022-12-20T14:13:57.121Z,21.53
2022-12-20T14:16:26.848Z,20.67
2022-12-20T14:19:05.993Z,20.50
2022-12-20T14:21:39.807Z,20.17
2022-12-20T14:24:27.417Z,22.27
2022-12-20T14:26:54.726Z,19.93
2022-12-20T14:29:29.958Z,22.97
2022-12-20T14:31:57.380Z,21.27
2022-12-20T14:34:34.046Z,19.90
2022-12-20T14:37:36.284Z,25.43
2022-12-20T14:40:23.903Z,25.53
2022-12-20T14:42:51.365Z,24.30
2022-12-20T14:45:23.801Z,50.93
2022-12-20T14:48:15.535Z,24.00
2022-12-20T14:50:52.566Z,26.80
2022-12-20T14:53:27.881Z,29.83
2022-12-20T14:55:55.240Z,27.17
2022-12-20T14:58:29.877Z,26.60
2022-12-20T15:01:16.386Z,30.70
2022-12-20T15:03:59.921Z,22.03
2022-12-20T15:06:44.467Z,37.87
2022-12-20T15:09:11.493Z,30.57
2022-12-20T15:11:39.156Z,19.80
2022-12-20T15:14:36.577Z,25.13
2022-12-20T15:17:09.898Z,22.47
2022-12-20T15:19:42.017Z,34.10
2022-12-20T15:22:18.827Z,45.77
2022-12-20T15:24:45.724Z,69.70
2022-12-20T15:27:16.094Z,29.10
2022-12-20T15:29:43.543Z,32.43
2022-12-20T15:32:24.806Z,32.93
2022-12-20T15:34:51.859Z,21.93
2022-12-20T15:37:19.257Z,25.23
2022-12-20T15:39:46.553Z,21.20
2022-12-20T15:42:20.056Z,25.37
2022-12-20T15:44:47.696Z,21.43
2022-12-20T15:47:16.002Z,22.30
2022-12-20T15:49:49.542Z,22.13
2022-12-20T15:52:21.435Z,33.10
2022-12-20T15:54:48.623Z,22.53
2022-12-20T15:57:16.041Z,23.80
2022-12-20T16:00:01.135Z,22.77
2022-12-20T16:02:31.209Z,25.58
2022-12-20T16:04:59.237Z,23.70
2022-12-20T16:07:26.374Z,23.23
2022-12-20T16:09:54.307Z,18.97
2022-12-20T16:12:35.043Z,27.07
2022-12-20T16:15:02.046Z,22.43
2022-12-20T16:17:29.167Z,19.27
2022-12-20T16:19:56.259Z,26.17
2022-12-20T16:22:25.072Z,22.23
2022-12-20T16:24:52.305Z,25.87
2022-12-20T16:27:20.567Z,23.13
2022-12-20T16:29:47.810Z,21.63
2022-12-20T16:32:16.856Z,23.60
2022-12-20T16:34:44.395Z,23.33
2022-12-20T16:37:12.135Z,22.83
2022-12-20T16:39:39.136Z,29.33
2022-12-20T16:42:18.520Z,21.70
2022-12-20T16:44:46.245Z,29.70
2022-12-20T16:47:14.457Z,21.97
2022-12-20T16:49:51.860Z,26.97
2022-12-20T16:52:22.146Z,21.93
2022-12-20T16:54:50.162Z,29.38
2022-12-20T16:57:17.251Z,26.23
2022-12-20T16:59:44.728Z,27.10
2022-12-20T17:02:32.906Z,30.87
2022-12-20T17:05:00.571Z,28.10
2022-12-20T17:07:27.549Z,31.40
2022-12-20T17:09:54.804Z,26.63
2022-12-20T17:12:23.299Z,28.30
2022-12-20T17:14:50.307Z,25.33
2022-12-20T17:17:17.683Z,25.23
2022-12-20T17:19:45.029Z,29.77
2022-12-20T17:22:25.572Z,25.23
2022-12-20T17:24:52.718Z,26.00
2022-12-20T17:27:19.684Z,25.03
2022-12-20T17:29:46.718Z,24.80
2022-12-20T17:32:24.557Z,28.23
2022-12-20T17:34:52.973Z,27.47
2022-12-20T17:37:21.195Z,25.03
2022-12-20T17:39:48.587Z,28.93
2022-12-20T17:42:16.725Z,27.23
2022-12-20T17:44:43.851Z,28.60
2022-12-20T17:47:11.895Z,29.87
2022-12-20T17:49:39.429Z,26.17
2022-12-20T17:52:06.425Z,28.53
2022-12-20T17:54:39.709Z,26.10
2022-12-20T17:57:14.319Z,24.40
2022-12-20T17:59:41.451Z,22.97
2022-12-20T18:02:28.690Z,32.43
2022-12-20T18:04:55.888Z,24.33
2022-12-20T18:07:22.798Z,27.80
2022-12-20T18:09:50.124Z,22.20
2022-12-20T18:12:17.959Z,29.57
2022-12-20T18:14:45.329Z,25.83
2022-12-20T18:17:12.337Z,24.40
2022-12-20T18:19:40.687Z,23.03
2022-12-20T18:22:07.671Z,22.63
2022-12-20T18:24:34.803Z,23.03
2022-12-20T18:27:01.736Z,27.27
2022-12-20T18:29:29.390Z,21.20
2022-12-20T18:31:56.338Z,24.40
2022-12-20T18:34:23.508Z,25.67
2022-12-20T18:36:50.400Z,21.17
2022-12-20T18:39:17.465Z,21.73
2022-12-20T18:41:44.725Z,23.63
2022-12-20T18:44:12.088Z,39.70
2022-12-20T18:46:39.526Z,19.70
2022-12-20T18:49:06.657Z,20.17
2022-12-20T18:51:38.124Z,22.40
2022-12-20T18:54:07.373Z,26.40
2022-12-20T18:56:37.781Z,20.57
2022-12-20T18:59:11.608Z,22.77
2022-12-20T19:01:41.066Z,21.90
2022-12-20T19:04:08.613Z,21.93
2022-12-20T19:06:37.092Z,24.27
2022-12-20T19:09:06.793Z,24.50
2022-12-20T19:11:34.047Z,26.03
2022-12-20T19:14:01.380Z,26.77
2022-12-20T19:16:32.116Z,31.70
2022-12-20T19:19:01.006Z,21.77
2022-12-20T19:21:31.360Z,19.50
2022-12-20T19:24:01.779Z,22.40
2022-12-20T19:26:29.971Z,27.07
2022-12-20T19:28:58.515Z,22.63
2022-12-20T19:31:28.781Z,20.90
2022-12-20T19:33:59.356Z,27.27
2022-12-20T19:36:32.624Z,25.97
2022-12-20T19:39:01.727Z,23.13
2022-12-20T19:41:32.297Z,22.60
2022-12-20T19:43:59.969Z,28.67
2022-12-20T19:46:29.596Z,20.13
2022-12-20T19:48:58.441Z,23.90
2022-12-20T19:51:26.928Z,18.37
2022-12-20T19:53:54.723Z,21.73
2022-12-20T19:56:25.307Z,24.47
2022-12-20T19:58:53.185Z,25.23
2022-12-20T20:01:23.090Z,23.80
2022-12-20T20:03:50.306Z,27.73
2022-12-20T20:06:17.472Z,32.60
2022-12-20T20:08:45.820Z,23.87
2022-12-20T20:11:13.087Z,22.23
2022-12-20T20:13:40.383Z,19.20
2022-12-20T20:16:08.328Z,26.00
2022-12-20T20:18:37.357Z,23.87
2022-12-20T20:21:14.266Z,27.43
2022-12-20T20:23:41.606Z,23.83
2022-12-20T20:26:13.244Z,24.03
2022-12-20T20:28:44.897Z,20.73
2022-12-20T20:31:14.744Z,22.30
2022-12-20T20:33:42.742Z,22.70
2022-12-20T20:36:14.068Z,27.23
2022-12-20T20:38:41.288Z,21.90
2022-12-20T20:41:09.084Z,21.37
2022-12-20T20:43:39.273Z,22.53
2022-12-20T20:46:08.626Z,18.03
2022-12-20T20:48:36.066Z,21.27
2022-12-20T20:51:03.445Z,21.23
2022-12-20T20:53:34.011Z,19.80
2022-12-20T20:56:02.748Z,29.47
2022-12-20T20:58:29.797Z,32.47
2022-12-20T21:00:59.122Z,27.03
2022-12-20T21:03:27.529Z,21.80
2022-12-20T21:08:41.808Z,21.97
2022-12-20T21:11:09.530Z,26.20
2022-12-20T21:13:37.070Z,19.43
2022-12-20T21:16:12.702Z,22.27
2022-12-20T21:18:39.873Z,19.73
2022-12-20T21:21:11.739Z,26.77
2022-12-20T21:23:40.093Z,21.27
2022-12-20T21:26:07.874Z,22.57
2022-12-20T21:28:35.774Z,21.37
2022-12-20T21:31:05.224Z,19.57
2022-12-20T21:33:32.514Z,19.93
2022-12-20T21:36:14.410Z,25.63
2022-12-20T21:38:41.807Z,25.43
2022-12-20T21:41:12.461Z,20.90
2022-12-20T21:43:39.889Z,25.00
2022-12-20T21:46:11.368Z,35.10
2022-12-20T21:48:44.263Z,30.77
2022-12-20T21:51:14.424Z,26.30
2022-12-20T21:53:55.606Z,24.17
2022-12-20T21:56:24.112Z,25.13
2022-12-20T21:58:51.876Z,39.13
2022-12-20T22:01:21.566Z,28.73
2022-12-20T22:03:58.174Z,25.60
2022-12-20T22:06:25.815Z,27.37
2022-12-20T22:08:52.790Z,24.97
2022-12-20T22:11:19.798Z,28.27
2022-12-20T22:13:47.425Z,36.77
2022-12-20T22:16:17.827Z,45.70
2022-12-20T22:18:49.644Z,39.67
2022-12-20T22:21:17.807Z,38.90
2022-12-20T22:23:45.037Z,28.73
2022-12-20T22:26:14.801Z,22.33
2022-12-20T22:28:47.576Z,22.90
2022-12-20T22:31:15.162Z,23.63
2022-12-20T22:33:42.439Z,28.50
2022-12-20T22:36:11.395Z,19.87
2022-12-20T22:38:38.692Z,21.73
2022-12-20T22:41:17.419Z,20.20
2022-12-20T22:43:45.751Z,22.40
2022-12-20T22:46:14.311Z,24.90
2022-12-20T22:48:41.983Z,26.40
2022-12-20T22:51:16.602Z,31.93
2022-12-20T22:53:43.739Z,30.73
2022-12-20T22:56:11.647Z,21.77
2022-12-20T22:58:39.332Z,18.93
2022-12-20T23:01:08.839Z,19.53
2022-12-20T23:03:37.236Z,21.63
2022-12-20T23:06:06.104Z,21.93
2022-12-20T23:08:35.593Z,25.73
2022-12-20T23:11:22.194Z,28.73
2022-12-20T23:14:07.908Z,31.97
2022-12-20T23:16:36.846Z,36.13
2022-12-20T23:19:03.810Z,23.17
2022-12-20T23:21:49.571Z,22.97
2022-12-20T23:24:16.634Z,21.87
2022-12-20T23:26:44.018Z,22.00
2022-12-20T23:29:11.780Z,21.83
2022-12-20T23:31:38.794Z,23.00
2022-12-20T23:34:06.140Z,23.20
2022-12-20T23:36:33.539Z,25.47
2022-12-20T23:39:00.933Z,24.73
2022-12-20T23:41:28.417Z,28.13
2022-12-20T23:43:55.991Z,30.20
2022-12-20T23:46:23.304Z,33.30
2022-12-20T23:48:53.340Z,21.57
2022-12-20T23:51:20.996Z,21.13
2022-12-20T23:53:48.650Z,21.40
2022-12-20T23:56:18.264Z,23.70
2022-12-20T23:58:46.282Z,22.53
